To NAV CANADA Home Page Login to a new session Search on AWWS site Feedback and Comments Disclaimer Vers la page française équivalente Tips FAQ What's new on the site To the Forecasts and Observations / NOTAM section To "File a Flight Plan" website Publications and other links Update of the User's profile FIC Telephone Numbers My Weather Data Folder Route Weather Data Regional Weather Data Local Weather Data To the Forecasts and Observations / NOTAM section
Request Generated 01/21/2017 at 02:03:30 UTC . Weather information available at that time is displayed.

METAR/TAF

GOOSE BAY/NL    

METAR CYYR 210200Z 31003KT 15SM FEW050 M18/M19 A2992 RMK SC0 FROIN SLP137=
METAR CYYR 210100Z 20002KT 15SM FEW001 FEW050 M18/M19 A2993 RMK SF0SC0 SLP142=
METAR CYYR 210000Z 00000KT 15SM MIFG FEW050 M16/M17 A2994 RMK SC0 SLP144=

TAF CYYR 202332Z 2100/2124 23005KT P6SM FEW050
FM210600 VRB03KT P6SM SCT030 BKN160
FM211500 VRB03KT P6SM -SN BKN030 OVC050
FM211800 VRB03KT 4SM -SN SCT010 OVC020
BECMG 2122/2124 34008KT
RMK NXT FCST BY 210600Z=
Your time UTC time
Weather data provided by Environment Canada and NAV CANADA